CYHA

Quaqtaq Airport

Quaqtaq, Quebec, Canada
METAR CYHA 192200Z 26018G25KT 6SM DRSN OVC021 M34/M39 A2997 RMK NS8 SN COV/TR LOOSE LAST STFD OBS/NEXT 201300UTC SLP156
Observed Flight Rules
Feb-19 @ 22:00 UTC (9 hours ago) Marginal Visual Flight Rules
Wind Visibility Clouds Conditions
260° at 18 knots
 Gusting to 25 knots
6 miles
  • Overcast at 2,100' AGL
  • Low drifting
  • Snow
Temperatures Readings
Current -34°C / -29°F
Dewpoint -39°C / -38°F
Humidity 60%
Altimeter 29.97" Hg
Pressure 1015.6 hPa
Elevation 30
METAR CYHA 192200Z 26018G25KT 6SM DRSN OVC021 M34/M39 A2997 RMK NS8 SN COV/TR LOOSE LAST STFD OBS/NEXT 201300UTC SLP156
Observed Flight Rules
Feb-19 @ 22:00 UTC
(9 hours ago)
MVFR
Wind Visibility
260° at 18 knots
 Gusting to 25 knots
6 miles
Clouds
  • Overcast at 2,100' AGL
Conditions
  • Low drifting
  • Snow
Temperature Dewpoint
-34°C / -29°F -39°C / -38°F
Humidity Altimeter Pressure
60% 29.97" Hg 1015.6 hPa